Impacts TAF Board INFO
FOR SITUATIONAL AWARENESS. NOT TO BE USED FOR FLIGHT PLANNING PURPOSES.
IDs:

KPIT - Pittsburgh Intl, PA, US

Issued at 2320 UTC 26 Feb 2017
Updated at 0159 UTC 27 Feb 2017
Potential Impact None Slight Moderate High
Time0151Z 27/02Z 27/03Z 27/04Z 27/05Z 27/06Z 27/07Z 27/08Z 27/09Z 27/10Z 27/11Z 27/12Z 27/13Z 27/14Z
Type OBS PRVL PRVL PRVL PRVL PRVL PRVL PRVL PRVL PRVL PRVL PRVL PRVL PRVL
VIS 10 >6 >6 >6 >6 >6 >6 >6 >6 >6 >6 >6 >6 >6
CIG -- -- -- -- -- -- -- -- -- -- -- -- 50 50
Cover FEW SKC SKC SKC SKC SKC SKC SKC SKC SKC SKC SKC OVC OVC
FltCat VFR VFR VFR VFR VFR VFR VFR VFR VFR VFR VFR VFR VFR VFR
WX -- -- -- -- -- -- -- -- -- -- -- -- -- --
WDir 190 200 200 200 200 200 200 200 200 200 200 200 220 220
WSpd 5 6 6 6 6 6 6 6 6 6 6 6 10 10
WGst -- -- -- -- -- -- -- -- -- -- -- -- -- --

Raw TAF
KPIT 262320Z 2700/2806 20006KT P6SM SKC
  FM271300 22010KT P6SM OVC050
  FM271700 21012KT P6SM OVC025
  FM280200 VRB05KT P6SM BKN050


Raw METAR
KPIT 270151Z 19005KT 10SM FEW250 01/M09 A3018 RMK AO2 SLP240 T00111094
KPIT 270051Z 17004KT 10SM SCT250 02/M09 A3017 RMK AO2 SLP236 T00171094
KPIT 262351Z 21006KT 10SM SCT250 03/M09 A3015 RMK AO2 SLP231 T00281094 10039 20000 53012
KPIT 262251Z 23006KT 10SM FEW250 04/M10 A3013 RMK AO2 SLP223 T00391100

METAR Board
Radar Display
Forecast Discussion

FOR SITUATIONAL AWARENESS. NOT TO BE USED FOR FLIGHT PLANNING PURPOSES.

Page loaded:  01:59 UTC  |   05:59 PM Pacific  |   06:59 PM Mountain  |   07:59 PM Central  |   08:59 PM Eastern

 

ADVISORIES

FORECASTS

FORECASTS

OBSERVATIONS

USER TOOLS

ABOUT US